Time;durP1;ratioP1;P1;durP2;ratioP2;P2;SDS_P1;SDS_P2;PMS_P1;PMS_P2;Temp;Humidity;BMP_temperature;BMP_pressure;BME280_temperature;BME280_humidity;BME280_pressure;Samples;Min_cycle;Max_cycle;Signal;HPM_P1;HPM_P2
2021/09/10 00:00:20;;;;;;;;;;;16.90;99.90;;;;;;5015673;28;19925;-73
2021/09/10 00:02:52;;;;;;;;;;;16.80;99.90;;;;;;5014775;28;19925;-72
2021/09/10 00:05:19;;;;;;;;;;;16.80;99.90;;;;;;5014690;28;19925;-72
2021/09/10 00:07:46;;;;;;;;;;;16.80;99.90;;;;;;5030632;28;19964;-73
2021/09/10 00:10:17;;;;;;;;;;;16.70;99.90;;;;;;5032421;28;20369;-73
2021/09/10 00:12:44;;;;;;;;;;;16.70;99.90;;;;;;5030836;28;20306;-73
2021/09/10 00:15:15;;;;;;;;;;;16.70;99.90;;;;;;5014882;28;19932;-73
2021/09/10 00:17:47;;;;;;;;;;;16.70;99.90;;;;;;5015493;28;19925;-72
2021/09/10 00:20:19;;;;;;;;;;;16.70;99.90;;;;;;5032022;28;20300;-73
2021/09/10 00:22:51;;;;;;;;;;;16.60;99.90;;;;;;5031431;28;19931;-72
2021/09/10 00:25:22;;;;;;;;;;;16.70;99.90;;;;;;5031877;28;19964;-72
2021/09/10 00:27:49;;;;;;;;;;;16.70;99.90;;;;;;5047359;28;19972;-73
2021/09/10 00:30:16;;;;;;;;;;;16.70;99.90;;;;;;5047435;28;19987;-73
2021/09/10 00:32:42;;;;;;;;;;;16.60;99.90;;;;;;5031811;28;19936;-73
2021/09/10 00:35:11;;;;;;;;;;;16.60;99.90;;;;;;5031787;28;19959;-72
2021/09/10 00:37:42;;;;;;;;;;;16.60;99.90;;;;;;5014106;28;20312;-73
2021/09/10 00:40:14;;;;;;;;;;;16.60;99.90;;;;;;5047250;28;19931;-73
2021/09/10 00:42:41;;;;;;;;;;;16.60;99.90;;;;;;5014282;28;19979;-73
2021/09/10 00:45:08;;;;;;;;;;;16.60;99.90;;;;;;5013818;28;19995;-72
2021/09/10 00:47:40;;;;;;;;;;;16.60;99.90;;;;;;5014278;28;19925;-73
2021/09/10 00:50:12;;;;;;;;;;;16.50;99.90;;;;;;5014069;28;20410;-72
2021/09/10 00:52:43;;;;;;;;;;;16.50;99.90;;;;;;5014145;28;19925;-73
2021/09/10 00:55:22;;;;;;;;;;;16.40;99.90;;;;;;5031545;28;20395;-73
2021/09/10 00:57:49;;;;;;;;;;;16.40;99.90;;;;;;5031857;28;19925;-73
2021/09/10 01:00:21;;;;;;;;;;;16.30;99.90;;;;;;5014402;28;19932;-73
2021/09/10 01:02:53;;;;;;;;;;;16.20;99.90;;;;;;5046035;28;20336;-72
2021/09/10 01:05:25;;;;;;;;;;;16.20;99.90;;;;;;5014382;28;20024;-72
2021/09/10 01:07:57;;;;;;;;;;;16.20;99.90;;;;;;5031119;28;19956;-72
2021/09/10 01:10:29;;;;;;;;;;;16.10;99.90;;;;;;5013896;28;20363;-73
2021/09/10 01:13:19;;;;;;;;;;;16.10;99.90;;;;;;5031757;28;19965;-73
2021/09/10 01:15:51;;;;;;;;;;;16.10;99.90;;;;;;5031405;28;19931;-72
2021/09/10 01:18:23;;;;;;;;;;;16.00;99.90;;;;;;5013446;28;19960;-72
2021/09/10 01:20:55;;;;;;;;;;;16.00;99.90;;;;;;5014235;28;19976;-72
2021/09/10 01:23:26;;;;;;;;;;;16.00;99.90;;;;;;5045783;28;19945;-73
2021/09/10 01:25:58;;;;;;;;;;;16.00;99.90;;;;;;5016564;28;19926;-72
2021/09/10 01:28:30;;;;;;;;;;;16.00;99.90;;;;;;5017940;28;20475;-72
2021/09/10 01:31:02;;;;;;;;;;;15.90;99.90;;;;;;5017659;28;19960;-73
2021/09/10 01:33:33;;;;;;;;;;;15.90;99.90;;;;;;5035378;28;20450;-73
2021/09/10 01:36:00;;;;;;;;;;;15.90;99.90;;;;;;5017043;28;19960;-72
2021/09/10 01:38:32;;;;;;;;;;;15.90;99.90;;;;;;5017367;28;19967;-72
2021/09/10 01:41:03;;;;;;;;;;;15.90;99.90;;;;;;5035109;28;19979;-72
2021/09/10 01:43:35;;;;;;;;;;;15.90;99.90;;;;;;5017248;28;19929;-72
2021/09/10 01:46:07;;;;;;;;;;;15.90;99.90;;;;;;5018047;28;19968;-72
2021/09/10 01:48:34;;;;;;;;;;;15.90;99.90;;;;;;5050179;28;20299;-72
2021/09/10 01:51:00;;;;;;;;;;;15.90;99.90;;;;;;5034767;28;19967;-73
2021/09/10 01:53:32;;;;;;;;;;;16.00;99.90;;;;;;5034784;28;20481;-72
2021/09/10 01:56:04;;;;;;;;;;;15.90;99.90;;;;;;5016654;28;19984;-73
2021/09/10 01:58:35;;;;;;;;;;;15.80;99.90;;;;;;5049900;28;19948;-72
2021/09/10 02:01:02;;;;;;;;;;;15.80;99.90;;;;;;5033496;28;19929;-72
2021/09/10 02:03:34;;;;;;;;;;;15.80;99.90;;;;;;5017016;28;19979;-73
2021/09/10 02:06:06;;;;;;;;;;;15.80;99.90;;;;;;5032341;28;20016;-73
2021/09/10 02:08:37;;;;;;;;;;;15.80;99.90;;;;;;5034296;28;20028;-72
2021/09/10 02:11:09;;;;;;;;;;;15.70;99.90;;;;;;5017688;28;19979;-72
2021/09/10 02:13:36;;;;;;;;;;;15.70;99.90;;;;;;5034338;28;19925;-72
2021/09/10 02:16:03;;;;;;;;;;;15.70;99.90;;;;;;5016436;28;19975;-72
2021/09/10 02:18:29;;;;;;;;;;;15.70;99.90;;;;;;5034282;28;19933;-72
2021/09/10 02:21:01;;;;;;;;;;;15.80;99.90;;;;;;5017402;28;20342;-72
2021/09/10 02:23:28;;;;;;;;;;;15.70;99.90;;;;;;5016518;28;20392;-72
2021/09/10 02:26:00;;;;;;;;;;;15.70;99.90;;;;;;5034227;28;19925;-72
2021/09/10 02:28:32;;;;;;;;;;;15.70;99.90;;;;;;5033554;28;19929;-72
2021/09/10 02:31:04;;;;;;;;;;;15.70;99.90;;;;;;5034217;28;19925;-72
2021/09/10 02:33:36;;;;;;;;;;;15.70;99.90;;;;;;5016240;28;19926;-72
2021/09/10 02:36:07;;;;;;;;;;;15.80;99.90;;;;;;5015833;28;20011;-73
2021/09/10 02:38:39;;;;;;;;;;;15.80;99.90;;;;;;5016786;28;19929;-73
2021/09/10 02:41:11;;;;;;;;;;;15.80;99.90;;;;;;5034002;28;20395;-73
2021/09/10 02:43:37;;;;;;;;;;;15.90;99.90;;;;;;5016091;28;19925;-73
2021/09/10 02:46:04;;;;;;;;;;;15.90;99.90;;;;;;5048799;28;19925;-73
2021/09/10 02:48:31;;;;;;;;;;;15.90;99.90;;;;;;5048902;28;19965;-72
2021/09/10 02:51:03;;;;;;;;;;;15.90;99.90;;;;;;5016137;28;20012;-73
2021/09/10 02:53:30;;;;;;;;;;;15.90;99.90;;;;;;5033663;28;19929;-72
2021/09/10 02:55:58;;;;;;;;;;;15.90;99.90;;;;;;5033347;28;20388;-73
2021/09/10 02:58:31;;;;;;;;;;;15.90;99.90;;;;;;5016965;28;19929;-72
2021/09/10 03:00:59;;;;;;;;;;;15.90;99.90;;;;;;5033701;28;19960;-72
2021/09/10 03:03:32;;;;;;;;;;;15.90;99.90;;;;;;5000406;28;19936;-73
2021/09/10 03:06:00;;;;;;;;;;;15.90;99.90;;;;;;5031982;28;19929;-73
2021/09/10 03:08:27;;;;;;;;;;;15.80;99.90;;;;;;5023282;28;20268;-72
2021/09/10 03:10:53;;;;;;;;;;;15.80;99.90;;;;;;5032493;28;19928;-72
2021/09/10 03:13:25;;;;;;;;;;;15.90;99.90;;;;;;5036045;28;19925;-72
2021/09/10 03:15:57;;;;;;;;;;;15.90;99.90;;;;;;5034639;28;19931;-73
2021/09/10 03:18:29;;;;;;;;;;;15.90;99.90;;;;;;5034928;28;20015;-72
2021/09/10 03:21:01;;;;;;;;;;;15.80;99.90;;;;;;5034884;28;19924;-72
2021/09/10 03:23:33;;;;;;;;;;;15.90;99.90;;;;;;5035640;28;19928;-72
2021/09/10 03:26:04;;;;;;;;;;;15.80;99.90;;;;;;5052277;28;20020;-72
2021/09/10 03:28:36;;;;;;;;;;;15.80;99.90;;;;;;5013533;28;19933;-73
2021/09/10 03:31:08;;;;;;;;;;;15.80;99.90;;;;;;5034503;28;19925;-73
2021/09/10 03:33:34;;;;;;;;;;;15.90;99.90;;;;;;5034565;28;20363;-72
2021/09/10 03:36:06;;;;;;;;;;;15.80;99.90;;;;;;5018339;28;20003;-73
2021/09/10 03:38:38;;;;;;;;;;;15.70;99.90;;;;;;5031936;28;19924;-73
2021/09/10 03:41:05;;;;;;;;;;;15.90;99.90;;;;;;5018355;28;19924;-73
2021/09/10 03:43:37;;;;;;;;;;;15.90;99.90;;;;;;5035695;28;19931;-73
2021/09/10 03:46:04;;;;;;;;;;;15.80;99.90;;;;;;5034397;28;20454;-73
2021/09/10 03:48:36;;;;;;;;;;;15.80;99.90;;;;;;5017934;28;19928;-73
2021/09/10 03:51:07;;;;;;;;;;;15.70;99.90;;;;;;5016838;28;19931;-73
2021/09/10 03:53:39;;;;;;;;;;;15.70;99.90;;;;;;5034863;28;19933;-73
2021/09/10 03:56:13;;;;;;;;;;;15.60;99.90;;;;;;5033714;28;19935;-73
2021/09/10 03:58:45;;;;;;;;;;;15.60;99.90;;;;;;5034581;28;20051;-73
2021/09/10 04:01:18;;;;;;;;;;;15.50;99.90;;;;;;5033863;28;19929;-72
2021/09/10 04:03:50;;;;;;;;;;;15.40;99.90;;;;;;5033814;28;20379;-73
2021/09/10 04:06:17;;;;;;;;;;;15.40;99.90;;;;;;5033611;28;19928;-73
2021/09/10 04:08:44;;;;;;;;;;;15.30;99.90;;;;;;5033990;28;19931;-73
2021/09/10 04:11:16;;;;;;;;;;;15.30;99.90;;;;;;5033686;28;20032;-73
2021/09/10 04:13:48;;;;;;;;;;;15.30;99.90;;;;;;5017956;28;20043;-73
2021/09/10 04:16:20;;;;;;;;;;;15.30;99.90;;;;;;5033531;28;20352;-73
2021/09/10 04:18:47;;;;;;;;;;;15.30;99.90;;;;;;5033637;28;20028;-73
2021/09/10 04:21:18;;;;;;;;;;;15.40;99.90;;;;;;5051658;28;19932;-73
2021/09/10 04:23:45;;;;;;;;;;;15.30;99.90;;;;;;5017231;28;19924;-73
2021/09/10 04:26:12;;;;;;;;;;;15.40;99.90;;;;;;5033361;28;19925;-73
2021/09/10 04:28:46;;;;;;;;;;;15.30;99.90;;;;;;5033737;28;20302;-73
2021/09/10 04:31:14;;;;;;;;;;;15.30;99.90;;;;;;5033612;28;20444;-73
2021/09/10 04:33:41;;;;;;;;;;;15.30;99.90;;;;;;5033572;28;19960;-73
2021/09/10 04:36:08;;;;;;;;;;;15.30;99.90;;;;;;5033707;28;19975;-73
2021/09/10 04:38:34;;;;;;;;;;;15.30;99.90;;;;;;5051378;28;20015;-73
2021/09/10 04:41:01;;;;;;;;;;;15.30;99.90;;;;;;5033874;28;20537;-73
2021/09/10 04:43:34;;;;;;;;;;;15.30;99.90;;;;;;5033680;28;19932;-73
2021/09/10 04:46:06;;;;;;;;;;;15.30;99.90;;;;;;5050874;28;19925;-72
2021/09/10 04:48:37;;;;;;;;;;;15.40;99.90;;;;;;5034460;28;20031;-73
2021/09/10 04:51:11;;;;;;;;;;;15.40;99.90;;;;;;5034656;28;19929;-73
2021/09/10 04:53:39;;;;;;;;;;;15.40;99.90;;;;;;5033431;28;20375;-72
2021/09/10 04:56:11;;;;;;;;;;;15.40;99.90;;;;;;5017319;28;19976;-72
2021/09/10 04:58:43;;;;;;;;;;;15.40;99.90;;;;;;5034124;28;19971;-72
2021/09/10 05:01:15;;;;;;;;;;;15.40;99.90;;;;;;5036412;28;19987;-72
2021/09/10 05:03:43;;;;;;;;;;;15.40;99.90;;;;;;5037425;28;19924;-72
2021/09/10 05:06:14;;;;;;;;;;;15.30;99.90;;;;;;5037811;28;19924;-72
2021/09/10 05:08:46;;;;;;;;;;;15.30;99.90;;;;;;5037191;28;19972;-73
2021/09/10 05:11:12;;;;;;;;;;;15.30;99.90;;;;;;5037406;28;19929;-72
2021/09/10 05:13:44;;;;;;;;;;;15.30;99.90;;;;;;5055225;28;19960;-72
2021/09/10 05:16:16;;;;;;;;;;;15.30;99.90;;;;;;5036802;28;19968;-72
2021/09/10 05:18:48;;;;;;;;;;;15.30;99.90;;;;;;5037103;28;20441;-72
2021/09/10 05:21:14;;;;;;;;;;;15.30;99.90;;;;;;5054120;28;20468;-72
2021/09/10 05:23:41;;;;;;;;;;;15.30;99.90;;;;;;5037118;28;20011;-72
2021/09/10 05:26:13;;;;;;;;;;;15.40;99.90;;;;;;5037751;28;19979;-72
2021/09/10 05:28:45;;;;;;;;;;;15.40;99.90;;;;;;5037828;28;20036;-72
2021/09/10 05:31:17;;;;;;;;;;;15.50;99.90;;;;;;5021235;28;19925;-73
2021/09/10 05:33:48;;;;;;;;;;;15.50;99.90;;;;;;5054713;28;20421;-72
2021/09/10 05:36:15;;;;;;;;;;;15.60;99.90;;;;;;5036477;28;19928;-72
2021/09/10 05:38:42;;;;;;;;;;;15.60;99.90;;;;;;5036678;28;19971;-72
2021/09/10 05:41:14;;;;;;;;;;;15.60;99.90;;;;;;5037814;28;19929;-71
2021/09/10 05:43:40;;;;;;;;;;;15.70;99.90;;;;;;5020783;28;19953;-72
2021/09/10 05:46:07;;;;;;;;;;;15.70;99.90;;;;;;5020306;28;20027;-72
2021/09/10 05:48:35;;;;;;;;;;;15.80;99.90;;;;;;5037248;28;19975;-72
2021/09/10 05:51:08;;;;;;;;;;;15.80;99.90;;;;;;5037933;28;19931;-72
2021/09/10 05:53:40;;;;;;;;;;;15.80;99.90;;;;;;5021472;28;20019;-71
2021/09/10 05:56:11;;;;;;;;;;;15.90;99.90;;;;;;5037197;28;19931;-72
2021/09/10 05:58:43;;;;;;;;;;;15.90;99.90;;;;;;5037893;28;19936;-71
2021/09/10 06:01:14;;;;;;;;;;;15.90;99.90;;;;;;5037977;28;20387;-71
2021/09/10 06:03:46;;;;;;;;;;;15.90;99.90;;;;;;5055254;28;20019;-72
2021/09/10 06:06:13;;;;;;;;;;;15.90;99.90;;;;;;5036718;28;19925;-76
2021/09/10 06:08:39;;;;;;;;;;;15.80;99.90;;;;;;5035963;28;19960;-72
2021/09/10 06:11:11;;;;;;;;;;;15.90;99.90;;;;;;5035789;28;19924;-72
2021/09/10 06:13:37;;;;;;;;;;;15.90;99.90;;;;;;5037432;28;20015;-72
2021/09/10 06:16:09;;;;;;;;;;;16.00;99.90;;;;;;5034948;28;19931;-73
2021/09/10 06:18:41;;;;;;;;;;;16.00;99.90;;;;;;5035462;28;19925;-73
2021/09/10 06:21:13;;;;;;;;;;;16.00;99.90;;;;;;5022404;28;19925;-72
2021/09/10 06:23:45;;;;;;;;;;;16.10;99.90;;;;;;5037797;28;19968;-72
2021/09/10 06:26:18;;;;;;;;;;;16.20;99.90;;;;;;5054577;28;20406;-72
2021/09/10 06:28:50;;;;;;;;;;;16.20;99.90;;;;;;5020745;28;19929;-72
2021/09/10 06:31:17;;;;;;;;;;;16.30;99.90;;;;;;5034419;28;20032;-72
2021/09/10 06:33:43;;;;;;;;;;;16.30;99.90;;;;;;5050012;28;19928;-72
2021/09/10 06:36:15;;;;;;;;;;;16.30;99.90;;;;;;5034874;28;19932;-72
2021/09/10 06:38:42;;;;;;;;;;;16.40;99.90;;;;;;5021450;28;19928;-72
2021/09/10 06:41:09;;;;;;;;;;;16.50;99.90;;;;;;5030102;28;19970;-72
2021/09/10 06:43:40;;;;;;;;;;;16.50;99.90;;;;;;5057995;28;20391;-72
2021/09/10 06:46:12;;;;;;;;;;;16.50;99.90;;;;;;5036264;28;19925;-72
2021/09/10 06:48:40;;;;;;;;;;;16.60;99.90;;;;;;5035915;28;19996;-72
2021/09/10 06:51:07;;;;;;;;;;;16.60;99.90;;;;;;5052277;28;20051;-72
2021/09/10 06:53:39;;;;;;;;;;;16.60;99.90;;;;;;5034217;28;19936;-72
2021/09/10 06:56:05;;;;;;;;;;;16.70;99.90;;;;;;5052305;28;19931;-72
2021/09/10 06:58:33;;;;;;;;;;;16.70;99.90;;;;;;5050901;28;19951;-72
2021/09/10 07:00:59;;;;;;;;;;;16.80;99.90;;;;;;5017950;28;19968;-72
2021/09/10 07:03:27;;;;;;;;;;;16.80;99.90;;;;;;5031160;28;19925;-72
2021/09/10 07:05:58;;;;;;;;;;;16.80;99.90;;;;;;5035497;28;19935;-72
2021/09/10 07:08:31;;;;;;;;;;;16.90;99.90;;;;;;5017634;28;19932;-73
2021/09/10 07:11:03;;;;;;;;;;;17.00;99.90;;;;;;5052854;28;20043;-72
2021/09/10 07:13:30;;;;;;;;;;;17.10;99.90;;;;;;5034500;28;19947;-72
2021/09/10 07:16:02;;;;;;;;;;;17.10;99.90;;;;;;5035811;28;20039;-72
2021/09/10 07:18:33;;;;;;;;;;;17.20;99.90;;;;;;5035087;28;19978;-72
2021/09/10 07:21:05;;;;;;;;;;;17.20;99.90;;;;;;5028063;28;19939;-72
2021/09/10 07:23:32;;;;;;;;;;;17.30;99.90;;;;;;5027315;28;19925;-72
2021/09/10 07:26:04;;;;;;;;;;;17.30;99.90;;;;;;5013994;28;20015;-72
2021/09/10 07:28:32;;;;;;;;;;;17.40;99.90;;;;;;5014157;28;20376;-72
2021/09/10 07:30:58;;;;;;;;;;;17.50;99.90;;;;;;5016926;28;19925;-72
2021/09/10 07:33:31;;;;;;;;;;;17.60;99.90;;;;;;5034277;28;19931;-73
2021/09/10 07:36:03;;;;;;;;;;;17.70;99.90;;;;;;5018293;28;20302;-72
2021/09/10 07:38:31;;;;;;;;;;;17.70;99.90;;;;;;5034175;28;19925;-73
2021/09/10 07:40:58;;;;;;;;;;;17.80;99.90;;;;;;5034280;28;20016;-72
2021/09/10 07:43:29;;;;;;;;;;;17.90;99.90;;;;;;5018608;28;19925;-74
2021/09/10 07:45:56;;;;;;;;;;;18.00;99.90;;;;;;5017344;28;19929;-73
2021/09/10 07:48:28;;;;;;;;;;;18.10;99.90;;;;;;5018248;28;19968;-72
2021/09/10 07:50:55;;;;;;;;;;;18.20;99.90;;;;;;5034690;28;20423;-72
2021/09/10 07:53:26;;;;;;;;;;;18.30;99.90;;;;;;5034086;28;19931;-72
2021/09/10 07:55:53;;;;;;;;;;;18.40;99.90;;;;;;5034003;28;20116;-73
2021/09/10 07:58:25;;;;;;;;;;;18.50;99.90;;;;;;5034955;28;19929;-79
2021/09/10 08:00:52;;;;;;;;;;;18.60;99.90;;;;;;5034381;28;19925;-72
2021/09/10 08:03:27;;;;;;;;;;;18.70;99.90;;;;;;5035313;28;19924;-72
2021/09/10 08:05:59;;;;;;;;;;;18.80;99.90;;;;;;5031731;28;20027;-74
2021/09/10 08:08:31;;;;;;;;;;;19.00;99.90;;;;;;5032999;28;19939;-72
2021/09/10 08:11:04;;;;;;;;;;;19.10;99.90;;;;;;5031556;28;19940;-72
2021/09/10 08:13:31;;;;;;;;;;;19.20;99.90;;;;;;5016536;28;20015;-72
2021/09/10 08:16:03;;;;;;;;;;;19.30;99.90;;;;;;5050261;28;19935;-72
2021/09/10 08:18:35;;;;;;;;;;;19.40;99.90;;;;;;5030299;28;19975;-72
2021/09/10 08:21:07;;;;;;;;;;;19.50;99.90;;;;;;5031336;28;20665;-72
2021/09/10 08:23:38;;;;;;;;;;;19.60;99.90;;;;;;5031201;28;20450;-72
2021/09/10 08:26:12;;;;;;;;;;;19.60;99.90;;;;;;5021335;28;21434;-72
2021/09/10 08:28:38;;;;;;;;;;;19.80;99.90;;;;;;5031955;28;19975;-72
2021/09/10 08:31:10;;;;;;;;;;;19.90;99.90;;;;;;5033240;28;19925;-72
2021/09/10 08:33:37;;;;;;;;;;;20.00;99.90;;;;;;5033324;28;20012;-72
2021/09/10 08:36:04;;;;;;;;;;;20.00;99.90;;;;;;5032640;28;20032;-72
2021/09/10 08:38:35;;;;;;;;;;;20.20;99.90;;;;;;5034988;28;19928;-72
2021/09/10 08:41:08;;;;;;;;;;;20.30;99.90;;;;;;5034053;28;19972;-72
2021/09/10 08:43:45;;;;;;;;;;;20.40;99.90;;;;;;5017680;28;20372;-73
2021/09/10 08:46:16;;;;;;;;;;;20.50;99.90;;;;;;5017202;28;20283;-73
2021/09/10 08:48:48;;;;;;;;;;;20.50;99.90;;;;;;5033482;28;19979;-72
2021/09/10 08:51:20;;;;;;;;;;;20.60;99.90;;;;;;5017539;28;19925;-72
2021/09/10 08:53:47;;;;;;;;;;;20.70;99.90;;;;;;5017099;28;19925;-73
2021/09/10 08:56:19;;;;;;;;;;;20.70;99.90;;;;;;5017347;28;20177;-73
2021/09/10 08:58:50;;;;;;;;;;;20.80;99.90;;;;;;5033190;28;19925;-72
2021/09/10 09:01:17;;;;;;;;;;;20.90;99.90;;;;;;5016871;28;20019;-72
2021/09/10 09:03:51;;;;;;;;;;;20.90;99.90;;;;;;5017663;28;19931;-73
2021/09/10 09:06:33;;;;;;;;;;;21.00;99.90;;;;;;5032865;28;20023;-73
2021/09/10 09:09:05;;;;;;;;;;;21.10;99.90;;;;;;5033850;28;19964;-73
2021/09/10 09:11:31;;;;;;;;;;;21.20;99.90;;;;;;5033155;28;19963;-73
2021/09/10 09:14:05;;;;;;;;;;;21.30;99.90;;;;;;5051295;28;20020;-73
2021/09/10 09:16:38;;;;;;;;;;;21.40;99.90;;;;;;5051210;28;20442;-72
2021/09/10 09:19:06;;;;;;;;;;;21.50;99.90;;;;;;5050992;28;19974;-72
2021/09/10 09:21:38;;;;;;;;;;;21.60;99.90;;;;;;5032929;28;20019;-72
2021/09/10 09:24:13;;;;;;;;;;;21.70;99.90;;;;;;5016991;28;20026;-72
2021/09/10 09:26:40;;;;;;;;;;;21.80;99.90;;;;;;5050942;28;20020;-72
2021/09/10 09:29:11;;;;;;;;;;;21.90;99.90;;;;;;5032976;28;19928;-72
2021/09/10 09:31:52;;;;;;;;;;;21.90;99.90;;;;;;5034257;28;19961;-72
2021/09/10 09:34:39;;;;;;;;;;;22.00;99.90;;;;;;5016856;28;20023;-72
2021/09/10 09:37:05;;;;;;;;;;;22.10;99.90;;;;;;5050783;28;20361;-72
2021/09/10 09:39:50;;;;;;;;;;;22.20;99.90;;;;;;5032635;28;19925;-71
2021/09/10 09:42:24;;;;;;;;;;;22.30;99.90;;;;;;5016715;28;20024;-72
2021/09/10 09:45:12;;;;;;;;;;;22.40;99.90;;;;;;5033378;28;20459;-72
2021/09/10 09:47:43;;;;;;;;;;;22.50;99.90;;;;;;5035877;28;19925;-72
2021/09/10 09:50:17;;;;;;;;;;;22.60;99.90;;;;;;5054286;28;19976;-72
2021/09/10 09:52:44;;;;;;;;;;;22.70;99.90;;;;;;5036370;28;19925;-71
2021/09/10 09:55:16;;;;;;;;;;;22.70;99.90;;;;;;5037142;28;19925;-72
2021/09/10 09:57:43;;;;;;;;;;;22.80;99.90;;;;;;5036630;28;19924;-72
2021/09/10 10:00:11;;;;;;;;;;;22.90;99.90;;;;;;5054047;28;20011;-72
2021/09/10 10:02:38;;;;;;;;;;;23.00;99.90;;;;;;5019480;28;20019;-71
2021/09/10 10:05:09;;;;;;;;;;;23.10;99.90;;;;;;5053527;28;19925;-73
2021/09/10 10:07:52;;;;;;;;;;;23.20;99.90;;;;;;5035676;28;19956;-72
2021/09/10 10:10:26;;;;;;;;;;;23.30;99.90;;;;;;5035845;28;20418;-72
2021/09/10 10:12:58;;;;;;;;;;;23.30;99.90;;;;;;5053713;28;20403;-72
2021/09/10 10:15:30;;;;;;;;;;;23.40;99.90;;;;;;5053218;28;19950;-73
2021/09/10 10:18:02;;;;;;;;;;;23.40;99.90;;;;;;5053557;28;19931;-72
2021/09/10 10:20:46;;;;;;;;;;;23.60;99.90;;;;;;5036579;28;20387;-72
2021/09/10 10:23:36;;;;;;;;;;;23.60;99.90;;;;;;5036383;28;20402;-72
2021/09/10 10:26:07;;;;;;;;;;;23.50;99.90;;;;;;5035152;28;20027;-72
2021/09/10 10:28:47;;;;;;;;;;;23.60;99.90;;;;;;5035409;28;19961;-72
2021/09/10 10:31:39;;;;;;;;;;;23.70;99.90;;;;;;5019677;28;19925;-72
2021/09/10 10:34:06;;;;;;;;;;;23.80;99.90;;;;;;5052702;28;20023;-72
2021/09/10 10:36:38;;;;;;;;;;;23.70;99.90;;;;;;5019488;28;19924;-71
2021/09/10 10:39:07;;;;;;;;;;;23.90;99.90;;;;;;5035231;28;19931;-72
2021/09/10 10:41:45;;;;;;;;;;;23.80;99.90;;;;;;5053123;28;20011;-71
2021/09/10 10:44:28;;;;;;;;;;;23.80;99.90;;;;;;5052759;28;19924;-72
2021/09/10 10:47:11;;;;;;;;;;;23.80;99.90;;;;;;5016868;28;20019;-72
2021/09/10 10:49:38;;;;;;;;;;;23.90;99.90;;;;;;5035366;28;20361;-72
2021/09/10 10:52:29;;;;;;;;;;;23.90;99.90;;;;;;5035001;28;20011;-71
2021/09/10 10:55:14;;;;;;;;;;;23.90;99.90;;;;;;5034884;28;20027;-71
2021/09/10 10:57:47;;;;;;;;;;;24.00;99.90;;;;;;5035484;28;19931;-72
2021/09/10 11:00:28;;;;;;;;;;;24.00;99.90;;;;;;5035916;28;19924;-72
2021/09/10 11:03:15;;;;;;;;;;;24.10;99.90;;;;;;5035806;28;19924;-71
2021/09/10 11:05:46;;;;;;;;;;;24.00;99.90;;;;;;5018231;28;20410;-72
2021/09/10 11:08:19;;;;;;;;;;;24.10;99.90;;;;;;5035068;28;20401;-72
2021/09/10 11:10:50;;;;;;;;;;;24.30;99.90;;;;;;5034672;28;20027;-72
2021/09/10 11:13:17;;;;;;;;;;;24.30;99.90;;;;;;5034986;28;19924;-72
2021/09/10 11:15:44;;;;;;;;;;;24.40;99.90;;;;;;5034523;28;19931;-73
2021/09/10 11:18:16;;;;;;;;;;;24.40;99.90;;;;;;5035551;28;20295;-71
2021/09/10 11:20:50;;;;;;;;;;;24.60;99.90;;;;;;5034477;28;19925;-72
2021/09/10 11:23:24;;;;;;;;;;;24.70;99.90;;;;;;5052688;28;19925;-72
2021/09/10 11:25:57;;;;;;;;;;;24.80;99.90;;;;;;5052122;28;19935;-72
2021/09/10 11:28:32;;;;;;;;;;;24.80;99.90;;;;;;5050558;28;19932;-72
2021/09/10 11:30:59;;;;;;;;;;;24.90;99.90;;;;;;5052358;28;19925;-72
2021/09/10 11:33:45;;;;;;;;;;;25.00;99.90;;;;;;5034525;28;20470;-72
2021/09/10 11:36:24;;;;;;;;;;;25.10;99.90;;;;;;5051894;28;19947;-72
2021/09/10 11:39:07;;;;;;;;;;;25.10;99.90;;;;;;5034379;28;19943;-72
2021/09/10 11:41:40;;;;;;;;;;;24.90;99.90;;;;;;5018682;28;20063;-72
2021/09/10 11:44:09;;;;;;;;;;;24.80;99.90;;;;;;5034033;28;19964;-73
2021/09/10 11:46:40;;;;;;;;;;;24.60;99.90;;;;;;5034280;28;19931;-72
2021/09/10 11:49:13;;;;;;;;;;;24.50;99.90;;;;;;5018225;28;19931;-72
2021/09/10 11:51:46;;;;;;;;;;;24.40;99.90;;;;;;5035111;28;19924;-72
2021/09/10 11:54:17;;;;;;;;;;;24.40;99.90;;;;;;5014521;28;20023;-72
2021/09/10 11:56:45;;;;;;;;;;;24.30;99.90;;;;;;5016795;28;19967;-72
2021/09/10 11:59:25;;;;;;;;;;;24.50;99.90;;;;;;5033273;28;20448;-72
2021/09/10 12:01:55;;;;;;;;;;;24.80;99.90;;;;;;5051029;28;19957;-72
2021/09/10 12:04:29;;;;;;;;;;;25.00;99.90;;;;;;5016829;28;20019;-72
2021/09/10 12:07:03;;;;;;;;;;;25.20;99.90;;;;;;5032108;28;19925;-72
2021/09/10 12:09:32;;;;;;;;;;;25.40;99.90;;;;;;5031785;28;19932;-73
2021/09/10 12:12:06;;;;;;;;;;;25.60;99.90;;;;;;5032751;28;19971;-72
2021/09/10 12:14:47;;;;;;;;;;;25.70;99.90;;;;;;5032041;28;20391;-73
2021/09/10 12:17:23;;;;;;;;;;;25.70;99.90;;;;;;5050043;28;19925;-72
2021/09/10 12:20:03;;;;;;;;;;;25.70;98.80;;;;;;5032503;28;19935;-74
2021/09/10 12:22:38;;;;;;;;;;;25.70;99.00;;;;;;5032928;28;20395;-72
2021/09/10 12:25:25;;;;;;;;;;;25.70;99.50;;;;;;5031889;28;19929;-73
2021/09/10 12:27:53;;;;;;;;;;;25.60;99.90;;;;;;5051803;28;20012;-72
2021/09/10 12:30:28;;;;;;;;;;;25.60;99.90;;;;;;5051488;28;19975;-73
2021/09/10 12:33:02;;;;;;;;;;;25.60;99.90;;;;;;5033893;28;19931;-72
2021/09/10 12:35:29;;;;;;;;;;;25.60;99.90;;;;;;5032799;28;19924;-72
2021/09/10 12:38:04;;;;;;;;;;;25.50;99.90;;;;;;5033496;28;19928;-73
2021/09/10 12:40:34;;;;;;;;;;;25.30;99.60;;;;;;5033511;28;19932;-72
2021/09/10 12:43:05;;;;;;;;;;;25.00;99.70;;;;;;5017726;28;19928;-72
2021/09/10 12:45:37;;;;;;;;;;;25.00;99.90;;;;;;5032765;28;19929;-73
2021/09/10 12:48:07;;;;;;;;;;;25.00;99.00;;;;;;5033934;28;19928;-73
2021/09/10 12:50:40;;;;;;;;;;;25.20;98.90;;;;;;5033120;28;19925;-73
2021/09/10 12:53:09;;;;;;;;;;;25.30;98.70;;;;;;5033743;28;19925;-72
2021/09/10 12:55:41;;;;;;;;;;;25.50;95.90;;;;;;5032538;28;19925;-72
2021/09/10 12:58:15;;;;;;;;;;;25.60;95.40;;;;;;5033446;28;19948;-73
2021/09/10 13:00:47;;;;;;;;;;;25.70;95.60;;;;;;5051344;28;20017;-73
2021/09/10 13:03:19;;;;;;;;;;;25.80;95.30;;;;;;5034246;28;20023;-72
2021/09/10 13:05:52;;;;;;;;;;;25.70;94.40;;;;;;5033711;28;20461;-72
2021/09/10 13:08:24;;;;;;;;;;;25.80;95.10;;;;;;5034202;28;19925;-72
2021/09/10 13:10:56;;;;;;;;;;;25.80;95.10;;;;;;5034220;28;19925;-72
2021/09/10 13:13:29;;;;;;;;;;;25.80;95.10;;;;;;5048272;28;19932;-72
2021/09/10 13:16:05;;;;;;;;;;;25.80;94.40;;;;;;5047742;28;19929;-73
2021/09/10 13:18:31;;;;;;;;;;;25.80;94.60;;;;;;5032082;28;19919;-72
2021/09/10 13:21:00;;;;;;;;;;;25.70;94.40;;;;;;5032321;28;20391;-71
2021/09/10 13:23:29;;;;;;;;;;;25.50;94.90;;;;;;5035318;28;19925;-71
2021/09/10 13:25:57;;;;;;;;;;;25.50;94.10;;;;;;5034863;28;19929;-72
2021/09/10 13:28:30;;;;;;;;;;;25.60;95.00;;;;;;5053087;28;19978;-71
2021/09/10 13:31:02;;;;;;;;;;;25.60;94.90;;;;;;5035392;28;20067;-72
2021/09/10 13:33:32;;;;;;;;;;;25.70;94.60;;;;;;5045853;28;20337;-72
2021/09/10 13:36:04;;;;;;;;;;;25.90;93.70;;;;;;5034029;28;20008;-71
2021/09/10 13:38:30;;;;;;;;;;;25.90;94.00;;;;;;5035171;28;19932;-73
2021/09/10 13:41:04;;;;;;;;;;;26.00;94.10;;;;;;5034533;28;19928;-72
2021/09/10 13:43:36;;;;;;;;;;;26.10;94.60;;;;;;5053079;28;20354;-72
2021/09/10 13:46:09;;;;;;;;;;;26.00;92.90;;;;;;5051245;28;20387;-71
2021/09/10 13:48:41;;;;;;;;;;;26.00;93.40;;;;;;5052517;28;19968;-72
2021/09/10 13:51:14;;;;;;;;;;;26.10;92.90;;;;;;5033960;28;19969;-71
2021/09/10 13:53:46;;;;;;;;;;;26.30;92.20;;;;;;5052309;28;19925;-72
2021/09/10 13:56:19;;;;;;;;;;;26.40;93.10;;;;;;5033657;28;19928;-72
2021/09/10 13:58:51;;;;;;;;;;;26.40;91.70;;;;;;5051760;28;19925;-72
2021/09/10 14:01:21;;;;;;;;;;;26.40;92.30;;;;;;5034781;28;20346;-72
2021/09/10 14:03:53;;;;;;;;;;;26.40;92.40;;;;;;5053160;28;19928;-72
2021/09/10 14:06:31;;;;;;;;;;;26.50;92.90;;;;;;5035277;28;20024;-72
2021/09/10 14:09:04;;;;;;;;;;;26.60;92.40;;;;;;5053261;28;19974;-72
2021/09/10 14:11:37;;;;;;;;;;;26.80;91.50;;;;;;5053924;28;19929;-72
2021/09/10 14:14:12;;;;;;;;;;;26.60;92.40;;;;;;5035379;28;19932;-72
2021/09/10 14:16:40;;;;;;;;;;;26.30;92.50;;;;;;5036113;28;19924;-72
2021/09/10 14:19:14;;;;;;;;;;;26.10;92.40;;;;;;5034303;28;19932;-72
2021/09/10 14:21:49;;;;;;;;;;;26.00;92.10;;;;;;5024932;28;19925;-73
2021/09/10 14:24:20;;;;;;;;;;;26.00;92.60;;;;;;5038303;28;19933;-72
2021/09/10 14:26:55;;;;;;;;;;;26.20;92.80;;;;;;5022945;28;19929;-74
2021/09/10 14:29:22;;;;;;;;;;;26.30;92.60;;;;;;5022404;28;19925;-72
2021/09/10 14:31:48;;;;;;;;;;;26.40;92.10;;;;;;5040572;28;19925;-72
2021/09/10 14:34:29;;;;;;;;;;;26.40;92.00;;;;;;5051772;28;19925;-72
2021/09/10 14:36:59;;;;;;;;;;;26.30;92.20;;;;;;5035758;28;19925;-72
2021/09/10 14:39:27;;;;;;;;;;;26.10;92.30;;;;;;5035692;28;19948;-72